CheckWX is a tool to help pilots better visualize weather data.  It is not intended as a substitute for an official pre-flight weather briefing.

20:43:49 UTC

CYGX TAF
Gillam Airport
Gillam, Canada
TAF CYGX 221838Z 2219/2307 20015G25KT P6SM SCT120 FM230300 22012G22KT P6SM SCT030 TEMPO 2303/2307 5SM -SN BKN020 BECMG 2304/2306 29010KT RMK NXT FCST BY 230100Z

Mar-22@
19:00 UTC

Mar-22 @ 19:00 UTC

Mar-23@
03:00 UTC

Mar-23 @ 03:00 UTC

TAF CYGX 221838Z 2219/2307 20015G25KT P6SM SCT120
Wind
  • 200° at 15 KTS
  • {Gusting to 25 KTS
Cloud Levels
  • Scattered at 12,000' AGL

Mar-23@
03:00 UTC

Mar-23 @ 03:00 UTC

Mar-23@
04:00 UTC

Mar-23 @ 04:00 UTC

FM230300 22012G22KT P6SM SCT030

From

From Standard forecast or significant change

Wind
  • 220° at 12 KTS
  • {Gusting to 22 KTS
Cloud Levels
  • Scattered at 3,000' AGL

Mar-23@
03:00 UTC

Mar-23 @ 03:00 UTC

Mar-23@
07:00 UTC

Mar-23 @ 07:00 UTC

TEMPO 2303/2307 5SM -SN BKN020

Temporary

Temporary Changes expected for less than half the time period

Conditions
Light Snow
Cloud Levels
  • Broken at 2,000' AGL

Mar-23@
04:00 UTC

Mar-23 @ 04:00 UTC

Mar-23@
07:00 UTC

Mar-23 @ 07:00 UTC

BECMG 2304/2306 29010KT RMK NXT FCST BY 230100Z

Becoming

Becoming Conditions expected by Sat, Mar 23, 2019 @ 06:00 UTC

Wind
  • 290° at 10 KTS
Cloud Levels
  • Scattered at 3,000' AGL